Flight Track Log - Related Links

Times and Time Zones

All times are in EDT time to prevent confusion due to time zone crossing. See the FLG3780 flight status page for this flight to view local times or setup timezone preferences in your user account.

Time Position Orientation Groundspeed Altitude Reporting Facility
EDT Latitude Longitude Course Direction KTS MPH feet Rate Location/Type
Wed 09:23:17 AM 42.7236 -73.8081 304° West 158 182 1,400  Level Boston Center
Wed 09:24:18 AM 42.6672 -73.8208 189° South 224 258 3,100 1,742 Climbing Boston Center
Wed 09:24:50 AM 42.6706 -73.8717 275° West 262 302 4,100 2,543 Climbing Boston Center
Wed 09:25:50 AM 42.7303 -73.9269 326° Northwest 275 316 7,000 2,900 Climbing Boston Center
Wed 09:26:00 AM 42.8287 -74.3009 281° West  Level FlightAware Approximate
Wed 09:26:50 AM 42.7964 -73.9822 328° Northwest 275 316 9,900  Level Boston Center
Wed 09:27:00 AM 42.8493 -74.4287 283° West  Level FlightAware Approximate
Wed 09:27:50 AM 42.8583 -74.0206 336° Northwest 281 323 11,200  Level Boston Center
Wed 09:28:00 AM 42.8765 -74.5529 304° West  Level FlightAware Approximate
Wed 09:28:50 AM 42.9514 -74.0769 336° Northwest 327 376 13,300  Level Boston Center
Wed 09:29:50 AM 43.0228 -74.1811 313° West 343 395 15,500 1,800 Climbing Boston Center
Wed 09:30:50 AM 43.0311 -74.3061 275° West 341 392 16,900 1,250 Climbing Boston Center
Wed 09:31:50 AM 43.0433 -74.4572 276° West 371 427 18,000 950 Climbing Boston Center
Wed 09:32:50 AM 43.0533 -74.5939 276° West 387 445 18,800 950 Climbing Boston Center
Wed 09:33:50 AM 43.0644 -74.7619 275° West 400 460 19,900 1,050 Climbing Boston Center
Wed 09:34:50 AM 43.0781 -74.9161 277° West 411 473 20,900 900 Climbing Boston Center
Wed 09:35:50 AM 43.0853 -75.0528 274° West 411 473 21,700 950 Climbing Boston Center
Wed 09:36:50 AM 43.0983 -75.2125 276° West 411 473 22,800 1,050 Climbing Boston Center
Wed 09:37:50 AM 43.1089 -75.3694 275° West 416 479 23,800 900 Climbing Boston Center
Wed 09:38:50 AM 43.1172 -75.5292 274° West 416 479 24,600 750 Climbing Boston Center
Wed 09:39:50 AM 43.1294 -75.6864 276° West 426 490 25,300 700 Climbing Boston Center
Wed 09:40:50 AM 43.1394 -75.8464 275° West 426 490 26,000 663 Climbing Boston Center
Wed 09:43:09 AM 43.1581 -76.2369 274° West 406 467 27,500 603 Climbing Cleveland Center
Wed 09:44:09 AM 43.1433 -76.4031 263° West 429 494 28,000 500 Climbing Cleveland Center
Wed 09:45:09 AM 43.1306 -76.5689 264° West 439 505 28,500 500 Climbing Cleveland Center
Wed 09:46:09 AM 43.1167 -76.7150 263° West 439 505 29,000 500 Climbing Cleveland Center
Wed 09:47:09 AM 43.1014 -76.8836 263° West 446 513 29,500 500 Climbing Cleveland Center
Wed 09:48:09 AM 43.0878 -77.0494 264° West 446 513 30,000 500 Climbing Cleveland Center
Wed 09:49:09 AM 43.0719 -77.2181 263° West 446 513 30,500 500 Climbing Cleveland Center
Wed 09:50:09 AM 43.0558 -77.3839 262° West 446 513 31,000 500 Climbing Cleveland Center
Wed 09:51:09 AM 43.0417 -77.5522 263° West 446 513 31,500 500 Climbing Cleveland Center
Wed 09:52:09 AM 43.0250 -77.7147 262° West 446 513 32,000 500 Climbing Cleveland Center
Wed 09:53:09 AM 43.0100 -77.8803 263° West 446 513 32,500 550 Climbing Cleveland Center
Wed 09:54:09 AM 42.9914 -78.0628 262° West 446 513 33,100 550 Climbing Cleveland Center
Wed 09:55:09 AM 42.9758 -78.2222 262° West 446 513 33,600 450 Climbing Cleveland Center
Wed 09:56:09 AM 42.9583 -78.3817 262° West 446 513 34,000 200 Climbing Cleveland Center
Wed 09:57:09 AM 42.9425 -78.5439 262° West 440 506 34,000  Level Cleveland Center
Wed 09:58:09 AM 42.9242 -78.7033 261° West 440 506 34,000  Level Cleveland Center
Wed 09:59:09 AM 42.8997 -78.8686 259° West 440 506 34,000  Level Cleveland Center
Wed 10:00:09 AM 42.8750 -79.0308 258° West 440 506 34,000  Level Cleveland Center
Wed 10:01:09 AM 42.8519 -79.1928 259° West 440 506 34,000  Level Cleveland Center
Wed 10:02:09 AM 42.8308 -79.3517 260° West 440 506 34,000 -200 Level Cleveland Center
Wed 10:03:09 AM 42.8053 -79.5106 258° West 440 506 33,600 -500 Descending Cleveland Center
Wed 10:04:09 AM 42.7839 -79.6694 260° West 429 494 33,000 -650 Descending Cleveland Center
Wed 10:05:09 AM 42.7578 -79.8281 257° West 429 494 32,300 -1,050 Descending Cleveland Center
Wed 10:06:09 AM 42.7442 -79.9953 264° West 429 494 30,900 -1,450 Descending Cleveland Center
Wed 10:07:09 AM 42.7367 -80.1619 267° West 446 513 29,400 -1,450 Descending Cleveland Center
Wed 10:08:09 AM 42.7308 -80.3261 267° West 446 513 28,000 -700 Descending Cleveland Center
Wed 10:09:09 AM 42.7247 -80.4872 267° West 434 499 28,000  Level Cleveland Center
Wed 10:10:09 AM 42.7164 -80.6453 266° West 429 494 28,000  Level Cleveland Center
Wed 10:11:09 AM 42.7100 -80.8036 267° West 423 487 28,000  Level Cleveland Center
Wed 10:12:09 AM 42.6992 -80.9675 265° West 429 494 28,000 -350 Level Cleveland Center
Wed 10:13:09 AM 42.6819 -81.1283 262° West 429 494 27,300 -1,100 Descending Cleveland Center
Wed 10:14:09 AM 42.6622 -81.2833 260° West 429 494 25,800 -1,400 Descending Cleveland Center
Wed 10:15:09 AM 42.6467 -81.4272 262° West 429 494 24,500 -1,400 Descending Cleveland Center
Wed 10:16:09 AM 42.6267 -81.5792 260° West 422 486 23,000 -1,250 Descending Cleveland Center
Wed 10:17:09 AM 42.6108 -81.7286 262° West 422 486 22,000 -1,000 Descending Cleveland Center
Wed 10:18:09 AM 42.5906 -81.8775 260° West 416 479 21,000 -1,500 Descending Cleveland Center
Wed 10:19:09 AM 42.5742 -82.0267 262° West 410 472 19,000 -1,850 Descending Cleveland Center
Wed 10:20:09 AM 42.5556 -82.1644 260° West 399 459 17,300 -1,941 Descending Cleveland Center
Wed 10:20:51 AM 42.5458 -82.2714 263° West 364 419 15,700 -2,000 Descending Cleveland Center
Wed 10:21:09 AM 42.5392 -82.3022 254° West 386 444 15,300 -1,846 Descending Cleveland Center
Wed 10:22:09 AM 42.5225 -82.4342 260° West 371 427 13,300 -1,650 Descending Cleveland Center
Wed 10:23:09 AM 42.5017 -82.5575 257° West 366 421 12,000 -950 Descending Cleveland Center
Wed 10:24:09 AM 42.4664 -82.6606 245° Southwest 334 384 11,400 -1,169 Descending Cleveland Center
Wed 10:25:07 AM 42.4333 -82.7661 247° West 282 325 9,700 -1,632 Descending Cleveland Center
Wed 10:26:14 AM 42.4353 -82.8789 271° West 280 322 8,000 -1,426 Descending Cleveland Center
Wed 10:27:09 AM 42.4231 -82.9628 259° West 273 314 6,800 -1,125 Descending Cleveland Center
Wed 10:28:22 AM 42.4017 -83.0886 257° West 261 300 5,600 -950 Descending Cleveland Center
Wed 10:29:09 AM 42.3836 -83.1525 249° West 273 314 4,900 -1,096 Descending Cleveland Center
Wed 10:30:06 AM 42.3503 -83.2383 242° Southwest 228 262 3,700 -1,263 Descending Cleveland Center

Login

Don't have an account? Register now (free) for customized features, flight alerts, and more!